CMA CGM Homere — MQBL6 — position and weather

sailwx.info

Track history (hours):
 
Tides and Currents Weather Stations Pressure Air Temp Water Temp Dewpoint Dewpoint Depression Visibility Wind Speed Wind Dir Waves Ship Positions

CMA CGM Homere

Last reported at 2014-Sep-01 11:06 UTC. Time now 2014-Sep-01 23:38 UTC.
Position N 38°42' W 009°51'.

Length 170 m; draft 7.5 m.

Type: Ship (hazmat cat A). MMSI: 235052314.

Date/timePositionNaut miles runAvg speedWind from/ knotsBaromVisibWave heightAir tempDewpointWater temp
2014-Sep-01 11:06N 38°42' W 009°51'815.0
2014-Sep-01 10:33N 38°34' W 009°50'1615.5
2014-Sep-01 09:33N 38°19' W 009°46'1616.5
2014-Sep-01 08:33N 38°03' W 009°40'1616.5
2014-Sep-01 07:34N 37°47' W 009°35'1816.7
2014-Sep-01 06:31N 37°30' W 009°30'2016.5
2014-Sep-01 05:18N 37°10' W 009°25'1216.6
2014-Sep-01 04:33N 36°59' W 009°21'1615.5
2014-Sep-01 03:31N 36°45' W 009°10'1616.5
2014-Sep-01 02:33N 36°39' W 008°52'1716.9
2014-Sep-01 01:33N 36°33' W 008°32'2017.4
2014-Sep-01 00:24N 36°27' W 008°08'1417.1
2014-Aug-31 23:33N 36°23' W 007°51'124 6.4
2014-Aug-31 04:21N 36°03' W 005°20'1214.5
2014-Aug-31 03:33N 35°57' W 005°32'5317.5
2014-Aug-31 00:33N 35°31' W 006°28'1919.0
2014-Aug-30 23:33N 35°19' W 006°46'32418.0
2014-Aug-30 05:33N 31°15' W 011°02'1717.4
2014-Aug-30 04:33N 31°01' W 011°14'7017.0
2014-Aug-30 00:25N 30°04' W 012°02'5517.7
2014-Aug-29 21:18N 29°19' W 012°39'1317.9
2014-Aug-29 20:33N 29°08' W 012°48'  
Track history (hours):
 
Tides and Currents Weather Stations Pressure Air Temp Water Temp Dewpoint Dewpoint Depression Visibility Wind Speed Wind Dir Waves Ship Positions

CMA CGM Homere

Last reported at 2014-Sep-01 11:06 UTC. Time now 2014-Sep-01 23:38 UTC.
Position N 38°42' W 009°51'.

Length 170 m; draft 7.5 m.

Type: Ship (hazmat cat A). MMSI: 235052314.

Date/timePositionNaut miles runAvg speedWind from/ knotsBaromVisibWave heightAir tempDewpointWater temp
2014-Sep-01 11:06N 38°42' W 009°51'815.0
2014-Sep-01 10:33N 38°34' W 009°50'1615.5
2014-Sep-01 09:33N 38°19' W 009°46'1616.5
2014-Sep-01 08:33N 38°03' W 009°40'1616.5
2014-Sep-01 07:34N 37°47' W 009°35'1816.7
2014-Sep-01 06:31N 37°30' W 009°30'2016.5
2014-Sep-01 05:18N 37°10' W 009°25'1216.6
2014-Sep-01 04:33N 36°59' W 009°21'1615.5
2014-Sep-01 03:31N 36°45' W 009°10'1616.5
2014-Sep-01 02:33N 36°39' W 008°52'1716.9
2014-Sep-01 01:33N 36°33' W 008°32'2017.4
2014-Sep-01 00:24N 36°27' W 008°08'1417.1
2014-Aug-31 23:33N 36°23' W 007°51'124 6.4
2014-Aug-31 04:21N 36°03' W 005°20'1214.5
2014-Aug-31 03:33N 35°57' W 005°32'5317.5
2014-Aug-31 00:33N 35°31' W 006°28'1919.0
2014-Aug-30 23:33N 35°19' W 006°46'32418.0
2014-Aug-30 05:33N 31°15' W 011°02'1717.4
2014-Aug-30 04:33N 31°01' W 011°14'7017.0
2014-Aug-30 00:25N 30°04' W 012°02'5517.7
2014-Aug-29 21:18N 29°19' W 012°39'1317.9
2014-Aug-29 20:33N 29°08' W 012°48'  

Dump ship's entire track history